sensor_id;sensor_type;location;lat;lon;timestamp;P1;durP1;ratioP1;P2;durP2;ratioP2
85742;SDS011;76184;42.004;21.420;2024-02-04T00:00:08;124.18;;;58.85;;
85742;SDS011;76184;42.004;21.420;2024-02-04T00:02:36;126.95;;;56.80;;
85742;SDS011;76184;42.004;21.420;2024-02-04T00:05:03;119.55;;;55.97;;
85742;SDS011;76184;42.004;21.420;2024-02-04T00:07:29;132.57;;;59.22;;
85742;SDS011;76184;42.004;21.420;2024-02-04T00:09:56;133.60;;;57.05;;
85742;SDS011;76184;42.004;21.420;2024-02-04T00:12:22;130.82;;;61.90;;
85742;SDS011;76184;42.004;21.420;2024-02-04T00:14:48;139.80;;;64.43;;
85742;SDS011;76184;42.004;21.420;2024-02-04T00:17:15;127.63;;;62.00;;
85742;SDS011;76184;42.004;21.420;2024-02-04T00:19:42;137.13;;;63.42;;
85742;SDS011;76184;42.004;21.420;2024-02-04T00:22:08;145.00;;;65.22;;
85742;SDS011;76184;42.004;21.420;2024-02-04T00:24:34;130.63;;;61.65;;
85742;SDS011;76184;42.004;21.420;2024-02-04T00:27:00;129.43;;;59.28;;
85742;SDS011;76184;42.004;21.420;2024-02-04T00:29:26;143.85;;;67.00;;
85742;SDS011;76184;42.004;21.420;2024-02-04T00:31:53;140.20;;;64.60;;
85742;SDS011;76184;42.004;21.420;2024-02-04T00:34:19;149.13;;;69.22;;
85742;SDS011;76184;42.004;21.420;2024-02-04T00:36:45;150.20;;;67.38;;
85742;SDS011;76184;42.004;21.420;2024-02-04T00:39:11;142.68;;;63.38;;
85742;SDS011;76184;42.004;21.420;2024-02-04T00:41:37;144.75;;;65.30;;
85742;SDS011;76184;42.004;21.420;2024-02-04T00:44:03;150.52;;;69.55;;
85742;SDS011;76184;42.004;21.420;2024-02-04T00:46:29;157.57;;;67.28;;
85742;SDS011;76184;42.004;21.420;2024-02-04T00:48:56;120.28;;;54.67;;
85742;SDS011;76184;42.004;21.420;2024-02-04T00:51:22;155.65;;;71.07;;
85742;SDS011;76184;42.004;21.420;2024-02-04T00:53:48;158.75;;;73.40;;
85742;SDS011;76184;42.004;21.420;2024-02-04T00:56:14;157.52;;;71.82;;
85742;SDS011;76184;42.004;21.420;2024-02-04T00:58:40;164.43;;;73.50;;
85742;SDS011;76184;42.004;21.420;2024-02-04T01:01:06;159.05;;;67.30;;
85742;SDS011;76184;42.004;21.420;2024-02-04T01:03:33;172.30;;;75.00;;
85742;SDS011;76184;42.004;21.420;2024-02-04T01:05:59;156.40;;;65.70;;
85742;SDS011;76184;42.004;21.420;2024-02-04T01:08:25;148.32;;;66.32;;
85742;SDS011;76184;42.004;21.420;2024-02-04T01:10:51;166.25;;;68.70;;
85742;SDS011;76184;42.004;21.420;2024-02-04T01:13:17;144.52;;;64.30;;
85742;SDS011;76184;42.004;21.420;2024-02-04T01:15:43;142.07;;;64.63;;
85742;SDS011;76184;42.004;21.420;2024-02-04T01:18:10;151.00;;;64.30;;
85742;SDS011;76184;42.004;21.420;2024-02-04T01:20:36;137.88;;;57.53;;
85742;SDS011;76184;42.004;21.420;2024-02-04T01:23:02;131.10;;;58.10;;
85742;SDS011;76184;42.004;21.420;2024-02-04T01:25:28;124.45;;;58.05;;
85742;SDS011;76184;42.004;21.420;2024-02-04T01:27:54;122.88;;;56.00;;
85742;SDS011;76184;42.004;21.420;2024-02-04T01:30:20;111.20;;;51.58;;
85742;SDS011;76184;42.004;21.420;2024-02-04T01:32:47;121.18;;;54.80;;
85742;SDS011;76184;42.004;21.420;2024-02-04T01:35:13;122.05;;;51.83;;
85742;SDS011;76184;42.004;21.420;2024-02-04T01:37:40;118.80;;;52.95;;
85742;SDS011;76184;42.004;21.420;2024-02-04T01:40:08;114.38;;;53.10;;
85742;SDS011;76184;42.004;21.420;2024-02-04T01:42:35;118.45;;;53.30;;
85742;SDS011;76184;42.004;21.420;2024-02-04T01:45:01;108.15;;;50.42;;
85742;SDS011;76184;42.004;21.420;2024-02-04T01:47:27;119.15;;;52.83;;
85742;SDS011;76184;42.004;21.420;2024-02-04T01:49:53;107.50;;;50.20;;
85742;SDS011;76184;42.004;21.420;2024-02-04T01:52:19;105.90;;;49.38;;
85742;SDS011;76184;42.004;21.420;2024-02-04T01:54:45;104.10;;;50.55;;
85742;SDS011;76184;42.004;21.420;2024-02-04T01:57:12;94.45;;;44.72;;
85742;SDS011;76184;42.004;21.420;2024-02-04T01:59:39;103.68;;;47.33;;
85742;SDS011;76184;42.004;21.420;2024-02-04T02:02:06;103.32;;;48.75;;
85742;SDS011;76184;42.004;21.420;2024-02-04T02:04:32;102.05;;;48.47;;
85742;SDS011;76184;42.004;21.420;2024-02-04T02:06:58;106.55;;;48.20;;
85742;SDS011;76184;42.004;21.420;2024-02-04T02:09:25;100.70;;;49.85;;
85742;SDS011;76184;42.004;21.420;2024-02-04T02:14:28;105.75;;;48.15;;
85742;SDS011;76184;42.004;21.420;2024-02-04T02:16:57;95.82;;;48.30;;
85742;SDS011;76184;42.004;21.420;2024-02-04T02:21:56;103.97;;;49.17;;
85742;SDS011;76184;42.004;21.420;2024-02-04T02:24:38;102.68;;;50.92;;
85742;SDS011;76184;42.004;21.420;2024-02-04T02:27:04;96.25;;;47.28;;
85742;SDS011;76184;42.004;21.420;2024-02-04T02:29:31;100.85;;;47.65;;
85742;SDS011;76184;42.004;21.420;2024-02-04T02:31:57;95.70;;;46.83;;
85742;SDS011;76184;42.004;21.420;2024-02-04T02:34:24;99.57;;;45.67;;
85742;SDS011;76184;42.004;21.420;2024-02-04T02:36:52;95.30;;;46.30;;
85742;SDS011;76184;42.004;21.420;2024-02-04T02:39:21;105.82;;;48.88;;
85742;SDS011;76184;42.004;21.420;2024-02-04T02:41:49;96.53;;;48.38;;
85742;SDS011;76184;42.004;21.420;2024-02-04T02:44:16;92.32;;;46.17;;
85742;SDS011;76184;42.004;21.420;2024-02-04T02:46:43;89.78;;;45.28;;
85742;SDS011;76184;42.004;21.420;2024-02-04T02:49:10;95.53;;;46.22;;
85742;SDS011;76184;42.004;21.420;2024-02-04T02:51:36;84.65;;;45.58;;
85742;SDS011;76184;42.004;21.420;2024-02-04T02:54:02;89.82;;;46.78;;
85742;SDS011;76184;42.004;21.420;2024-02-04T02:56:28;87.25;;;41.70;;
85742;SDS011;76184;42.004;21.420;2024-02-04T02:58:54;94.93;;;45.17;;
85742;SDS011;76184;42.004;21.420;2024-02-04T03:01:20;88.97;;;43.75;;
85742;SDS011;76184;42.004;21.420;2024-02-04T03:03:48;82.22;;;42.75;;
85742;SDS011;76184;42.004;21.420;2024-02-04T03:06:14;95.63;;;44.33;;
85742;SDS011;76184;42.004;21.420;2024-02-04T03:08:40;87.47;;;43.72;;
85742;SDS011;76184;42.004;21.420;2024-02-04T03:11:07;91.25;;;42.15;;
85742;SDS011;76184;42.004;21.420;2024-02-04T03:13:33;85.80;;;42.45;;
85742;SDS011;76184;42.004;21.420;2024-02-04T03:15:59;89.78;;;43.03;;
85742;SDS011;76184;42.004;21.420;2024-02-04T03:18:25;89.97;;;44.65;;
85742;SDS011;76184;42.004;21.420;2024-02-04T03:20:51;86.53;;;42.85;;
85742;SDS011;76184;42.004;21.420;2024-02-04T03:23:18;85.10;;;45.20;;
85742;SDS011;76184;42.004;21.420;2024-02-04T03:25:44;89.55;;;46.38;;
85742;SDS011;76184;42.004;21.420;2024-02-04T03:28:10;88.75;;;46.50;;
85742;SDS011;76184;42.004;21.420;2024-02-04T03:30:36;84.63;;;44.55;;
85742;SDS011;76184;42.004;21.420;2024-02-04T03:33:03;84.05;;;43.90;;
85742;SDS011;76184;42.004;21.420;2024-02-04T03:35:29;80.82;;;43.40;;
85742;SDS011;76184;42.004;21.420;2024-02-04T03:37:55;79.53;;;41.47;;
85742;SDS011;76184;42.004;21.420;2024-02-04T03:40:21;79.75;;;42.50;;
85742;SDS011;76184;42.004;21.420;2024-02-04T03:42:49;79.75;;;43.63;;
85742;SDS011;76184;42.004;21.420;2024-02-04T03:45:15;78.35;;;42.55;;
85742;SDS011;76184;42.004;21.420;2024-02-04T03:47:41;77.93;;;40.58;;
85742;SDS011;76184;42.004;21.420;2024-02-04T03:50:08;82.07;;;41.55;;
85742;SDS011;76184;42.004;21.420;2024-02-04T03:52:34;77.72;;;40.70;;
85742;SDS011;76184;42.004;21.420;2024-02-04T03:55:00;80.45;;;41.33;;
85742;SDS011;76184;42.004;21.420;2024-02-04T03:57:26;84.78;;;44.05;;
85742;SDS011;76184;42.004;21.420;2024-02-04T03:59:52;79.72;;;41.90;;
85742;SDS011;76184;42.004;21.420;2024-02-04T04:02:18;79.53;;;42.47;;
85742;SDS011;76184;42.004;21.420;2024-02-04T04:04:45;84.75;;;42.85;;
85742;SDS011;76184;42.004;21.420;2024-02-04T04:07:13;86.65;;;42.78;;
85742;SDS011;76184;42.004;21.420;2024-02-04T04:09:39;85.53;;;41.97;;
85742;SDS011;76184;42.004;21.420;2024-02-04T04:12:05;92.60;;;44.33;;
85742;SDS011;76184;42.004;21.420;2024-02-04T04:14:31;86.65;;;44.22;;
85742;SDS011;76184;42.004;21.420;2024-02-04T04:16:58;80.28;;;42.97;;
85742;SDS011;76184;42.004;21.420;2024-02-04T04:19:24;82.18;;;43.67;;
85742;SDS011;76184;42.004;21.420;2024-02-04T04:21:50;89.18;;;44.00;;
85742;SDS011;76184;42.004;21.420;2024-02-04T04:24:16;87.60;;;44.13;;
85742;SDS011;76184;42.004;21.420;2024-02-04T04:26:45;82.43;;;43.00;;
85742;SDS011;76184;42.004;21.420;2024-02-04T04:29:11;89.75;;;44.75;;
85742;SDS011;76184;42.004;21.420;2024-02-04T04:31:37;79.45;;;42.95;;
85742;SDS011;76184;42.004;21.420;2024-02-04T04:34:03;80.07;;;43.15;;
85742;SDS011;76184;42.004;21.420;2024-02-04T04:36:29;90.72;;;44.75;;
85742;SDS011;76184;42.004;21.420;2024-02-04T04:38:55;84.65;;;44.55;;
85742;SDS011;76184;42.004;21.420;2024-02-04T04:41:21;82.80;;;42.72;;
85742;SDS011;76184;42.004;21.420;2024-02-04T04:43:48;90.53;;;43.47;;
85742;SDS011;76184;42.004;21.420;2024-02-04T04:46:14;85.78;;;43.00;;
85742;SDS011;76184;42.004;21.420;2024-02-04T04:48:40;91.43;;;45.03;;
85742;SDS011;76184;42.004;21.420;2024-02-04T04:51:10;85.90;;;43.50;;
85742;SDS011;76184;42.004;21.420;2024-02-04T04:53:37;85.22;;;44.28;;
85742;SDS011;76184;42.004;21.420;2024-02-04T04:56:04;85.00;;;45.20;;
85742;SDS011;76184;42.004;21.420;2024-02-04T04:58:30;88.10;;;44.30;;
85742;SDS011;76184;42.004;21.420;2024-02-04T05:00:56;85.88;;;44.42;;
85742;SDS011;76184;42.004;21.420;2024-02-04T05:03:22;91.78;;;44.55;;
85742;SDS011;76184;42.004;21.420;2024-02-04T05:05:48;87.78;;;44.85;;
85742;SDS011;76184;42.004;21.420;2024-02-04T05:08:15;82.68;;;44.35;;
85742;SDS011;76184;42.004;21.420;2024-02-04T05:10:41;80.05;;;42.85;;
85742;SDS011;76184;42.004;21.420;2024-02-04T05:13:07;82.22;;;44.38;;
85742;SDS011;76184;42.004;21.420;2024-02-04T05:15:33;88.80;;;43.20;;
85742;SDS011;76184;42.004;21.420;2024-02-04T05:18:00;84.32;;;43.10;;
85742;SDS011;76184;42.004;21.420;2024-02-04T05:20:26;78.30;;;40.95;;
85742;SDS011;76184;42.004;21.420;2024-02-04T05:22:53;85.43;;;45.83;;
85742;SDS011;76184;42.004;21.420;2024-02-04T05:25:20;93.47;;;45.78;;
85742;SDS011;76184;42.004;21.420;2024-02-04T05:27:46;85.72;;;43.20;;
85742;SDS011;76184;42.004;21.420;2024-02-04T05:30:13;85.97;;;45.67;;
85742;SDS011;76184;42.004;21.420;2024-02-04T05:32:40;75.20;;;40.92;;
85742;SDS011;76184;42.004;21.420;2024-02-04T05:35:09;85.10;;;44.60;;
85742;SDS011;76184;42.004;21.420;2024-02-04T05:37:35;79.07;;;42.92;;
85742;SDS011;76184;42.004;21.420;2024-02-04T05:40:02;82.15;;;42.40;;
85742;SDS011;76184;42.004;21.420;2024-02-04T05:42:29;83.90;;;40.30;;
85742;SDS011;76184;42.004;21.420;2024-02-04T05:44:57;78.43;;;41.15;;
85742;SDS011;76184;42.004;21.420;2024-02-04T05:47:23;76.05;;;42.38;;
85742;SDS011;76184;42.004;21.420;2024-02-04T05:49:49;87.30;;;42.50;;
85742;SDS011;76184;42.004;21.420;2024-02-04T05:52:15;75.18;;;40.63;;
85742;SDS011;76184;42.004;21.420;2024-02-04T05:54:41;77.55;;;41.75;;
85742;SDS011;76184;42.004;21.420;2024-02-04T05:57:08;71.90;;;39.38;;
85742;SDS011;76184;42.004;21.420;2024-02-04T05:59:36;74.70;;;42.45;;
85742;SDS011;76184;42.004;21.420;2024-02-04T06:02:03;79.07;;;41.83;;
85742;SDS011;76184;42.004;21.420;2024-02-04T06:04:30;77.70;;;39.92;;
85742;SDS011;76184;42.004;21.420;2024-02-04T06:06:56;70.90;;;39.28;;
85742;SDS011;76184;42.004;21.420;2024-02-04T06:09:23;79.03;;;39.97;;
85742;SDS011;76184;42.004;21.420;2024-02-04T06:11:49;81.93;;;41.30;;
85742;SDS011;76184;42.004;21.420;2024-02-04T06:14:15;69.00;;;41.10;;
85742;SDS011;76184;42.004;21.420;2024-02-04T06:16:41;71.38;;;39.50;;
85742;SDS011;76184;42.004;21.420;2024-02-04T06:19:07;73.13;;;37.83;;
85742;SDS011;76184;42.004;21.420;2024-02-04T06:21:34;84.57;;;40.42;;
85742;SDS011;76184;42.004;21.420;2024-02-04T06:24:00;72.43;;;40.00;;
85742;SDS011;76184;42.004;21.420;2024-02-04T06:26:26;75.78;;;40.83;;
85742;SDS011;76184;42.004;21.420;2024-02-04T06:28:53;75.35;;;38.75;;
85742;SDS011;76184;42.004;21.420;2024-02-04T06:31:19;76.20;;;41.42;;
85742;SDS011;76184;42.004;21.420;2024-02-04T06:33:45;75.80;;;40.55;;
85742;SDS011;76184;42.004;21.420;2024-02-04T06:36:11;77.30;;;39.13;;
85742;SDS011;76184;42.004;21.420;2024-02-04T06:38:37;76.93;;;41.22;;
85742;SDS011;76184;42.004;21.420;2024-02-04T06:41:03;78.38;;;41.72;;
85742;SDS011;76184;42.004;21.420;2024-02-04T06:43:30;78.78;;;42.45;;
85742;SDS011;76184;42.004;21.420;2024-02-04T06:45:56;77.50;;;43.85;;
85742;SDS011;76184;42.004;21.420;2024-02-04T06:48:25;86.55;;;42.30;;
85742;SDS011;76184;42.004;21.420;2024-02-04T06:50:51;77.10;;;40.15;;
85742;SDS011;76184;42.004;21.420;2024-02-04T06:53:17;73.25;;;39.00;;
85742;SDS011;76184;42.004;21.420;2024-02-04T06:55:43;78.10;;;41.90;;
85742;SDS011;76184;42.004;21.420;2024-02-04T06:58:09;82.28;;;42.78;;
85742;SDS011;76184;42.004;21.420;2024-02-04T07:00:36;79.68;;;42.08;;
85742;SDS011;76184;42.004;21.420;2024-02-04T07:03:02;74.40;;;41.63;;
85742;SDS011;76184;42.004;21.420;2024-02-04T07:05:28;74.07;;;41.72;;
85742;SDS011;76184;42.004;21.420;2024-02-04T07:07:56;70.65;;;38.35;;
85742;SDS011;76184;42.004;21.420;2024-02-04T07:10:22;79.03;;;41.40;;
85742;SDS011;76184;42.004;21.420;2024-02-04T07:12:48;81.57;;;42.63;;
85742;SDS011;76184;42.004;21.420;2024-02-04T07:15:14;84.50;;;42.60;;
85742;SDS011;76184;42.004;21.420;2024-02-04T07:17:40;85.43;;;41.83;;
85742;SDS011;76184;42.004;21.420;2024-02-04T07:20:06;73.57;;;40.65;;
85742;SDS011;76184;42.004;21.420;2024-02-04T07:22:33;71.93;;;41.78;;
85742;SDS011;76184;42.004;21.420;2024-02-04T07:25:00;82.90;;;43.60;;
85742;SDS011;76184;42.004;21.420;2024-02-04T07:27:26;80.65;;;43.97;;
85742;SDS011;76184;42.004;21.420;2024-02-04T07:29:52;75.78;;;40.97;;
85742;SDS011;76184;42.004;21.420;2024-02-04T07:32:20;77.28;;;43.08;;
85742;SDS011;76184;42.004;21.420;2024-02-04T07:34:46;73.55;;;41.85;;
85742;SDS011;76184;42.004;21.420;2024-02-04T07:37:12;83.45;;;44.40;;
85742;SDS011;76184;42.004;21.420;2024-02-04T07:39:39;85.63;;;40.67;;
85742;SDS011;76184;42.004;21.420;2024-02-04T07:42:05;81.47;;;44.03;;
85742;SDS011;76184;42.004;21.420;2024-02-04T07:44:32;79.22;;;46.47;;
85742;SDS011;76184;42.004;21.420;2024-02-04T07:46:58;73.82;;;44.13;;
85742;SDS011;76184;42.004;21.420;2024-02-04T07:49:24;84.85;;;44.10;;
85742;SDS011;76184;42.004;21.420;2024-02-04T07:51:50;78.93;;;45.40;;
85742;SDS011;76184;42.004;21.420;2024-02-04T07:54:16;79.20;;;47.10;;
85742;SDS011;76184;42.004;21.420;2024-02-04T07:56:42;82.47;;;48.05;;
85742;SDS011;76184;42.004;21.420;2024-02-04T07:59:08;81.15;;;49.90;;
85742;SDS011;76184;42.004;21.420;2024-02-04T08:01:34;81.25;;;49.95;;
85742;SDS011;76184;42.004;21.420;2024-02-04T08:04:01;80.45;;;49.65;;
85742;SDS011;76184;42.004;21.420;2024-02-04T08:06:27;83.20;;;50.50;;
85742;SDS011;76184;42.004;21.420;2024-02-04T08:08:53;78.85;;;48.38;;
85742;SDS011;76184;42.004;21.420;2024-02-04T08:11:20;81.07;;;50.03;;
85742;SDS011;76184;42.004;21.420;2024-02-04T08:13:46;83.95;;;50.97;;
85742;SDS011;76184;42.004;21.420;2024-02-04T08:16:12;81.03;;;51.30;;
85742;SDS011;76184;42.004;21.420;2024-02-04T08:18:39;86.40;;;49.63;;
85742;SDS011;76184;42.004;21.420;2024-02-04T08:21:05;84.43;;;54.30;;
85742;SDS011;76184;42.004;21.420;2024-02-04T08:23:32;82.43;;;51.65;;
85742;SDS011;76184;42.004;21.420;2024-02-04T08:25:59;84.90;;;54.15;;
85742;SDS011;76184;42.004;21.420;2024-02-04T08:28:25;83.55;;;51.28;;
85742;SDS011;76184;42.004;21.420;2024-02-04T08:30:51;77.93;;;48.55;;
85742;SDS011;76184;42.004;21.420;2024-02-04T08:33:17;88.45;;;48.85;;
85742;SDS011;76184;42.004;21.420;2024-02-04T08:35:44;86.72;;;47.42;;
85742;SDS011;76184;42.004;21.420;2024-02-04T08:38:10;77.18;;;49.40;;
85742;SDS011;76184;42.004;21.420;2024-02-04T08:40:36;79.18;;;50.78;;
85742;SDS011;76184;42.004;21.420;2024-02-04T08:43:02;80.63;;;49.67;;
85742;SDS011;76184;42.004;21.420;2024-02-04T08:45:28;83.20;;;49.90;;
85742;SDS011;76184;42.004;21.420;2024-02-04T08:47:54;75.15;;;48.97;;
85742;SDS011;76184;42.004;21.420;2024-02-04T08:50:20;85.32;;;54.05;;
85742;SDS011;76184;42.004;21.420;2024-02-04T08:52:46;81.70;;;54.13;;
85742;SDS011;76184;42.004;21.420;2024-02-04T08:55:13;81.38;;;54.65;;
85742;SDS011;76184;42.004;21.420;2024-02-04T08:57:39;81.25;;;54.78;;
85742;SDS011;76184;42.004;21.420;2024-02-04T09:00:05;82.13;;;53.22;;
85742;SDS011;76184;42.004;21.420;2024-02-04T09:02:36;70.15;;;48.72;;
85742;SDS011;76184;42.004;21.420;2024-02-04T09:05:03;66.95;;;45.58;;
85742;SDS011;76184;42.004;21.420;2024-02-04T09:07:30;66.85;;;46.95;;
85742;SDS011;76184;42.004;21.420;2024-02-04T09:09:56;62.40;;;42.22;;
85742;SDS011;76184;42.004;21.420;2024-02-04T09:12:22;49.75;;;35.70;;
85742;SDS011;76184;42.004;21.420;2024-02-04T09:14:48;42.45;;;29.65;;
85742;SDS011;76184;42.004;21.420;2024-02-04T09:17:15;39.78;;;29.33;;
85742;SDS011;76184;42.004;21.420;2024-02-04T09:19:41;50.10;;;35.88;;
85742;SDS011;76184;42.004;21.420;2024-02-04T09:22:07;49.08;;;34.95;;
85742;SDS011;76184;42.004;21.420;2024-02-04T09:24:33;58.35;;;42.17;;
85742;SDS011;76184;42.004;21.420;2024-02-04T09:26:59;50.90;;;37.60;;
85742;SDS011;76184;42.004;21.420;2024-02-04T09:29:25;48.60;;;38.17;;
85742;SDS011;76184;42.004;21.420;2024-02-04T09:31:52;39.80;;;29.65;;
85742;SDS011;76184;42.004;21.420;2024-02-04T09:34:19;44.47;;;32.15;;
85742;SDS011;76184;42.004;21.420;2024-02-04T09:36:45;43.38;;;33.22;;
85742;SDS011;76184;42.004;21.420;2024-02-04T09:39:11;40.42;;;30.52;;
85742;SDS011;76184;42.004;21.420;2024-02-04T09:41:37;48.58;;;37.25;;
85742;SDS011;76184;42.004;21.420;2024-02-04T09:44:03;47.30;;;36.83;;
85742;SDS011;76184;42.004;21.420;2024-02-04T09:46:30;49.03;;;37.80;;
85742;SDS011;76184;42.004;21.420;2024-02-04T09:48:56;45.10;;;33.72;;
85742;SDS011;76184;42.004;21.420;2024-02-04T09:51:25;54.45;;;38.20;;
85742;SDS011;76184;42.004;21.420;2024-02-04T09:53:52;51.40;;;36.80;;
85742;SDS011;76184;42.004;21.420;2024-02-04T09:56:19;47.47;;;37.70;;
85742;SDS011;76184;42.004;21.420;2024-02-04T09:58:48;46.55;;;32.47;;
85742;SDS011;76184;42.004;21.420;2024-02-04T10:01:17;44.42;;;32.28;;
85742;SDS011;76184;42.004;21.420;2024-02-04T10:03:44;40.42;;;33.33;;
85742;SDS011;76184;42.004;21.420;2024-02-04T10:06:10;40.40;;;31.33;;
85742;SDS011;76184;42.004;21.420;2024-02-04T10:08:36;38.20;;;29.10;;
85742;SDS011;76184;42.004;21.420;2024-02-04T10:11:03;41.83;;;28.95;;
85742;SDS011;76184;42.004;21.420;2024-02-04T10:13:29;39.78;;;29.67;;
85742;SDS011;76184;42.004;21.420;2024-02-04T10:15:55;39.38;;;29.77;;
85742;SDS011;76184;42.004;21.420;2024-02-04T10:18:22;43.05;;;31.17;;
85742;SDS011;76184;42.004;21.420;2024-02-04T10:20:48;40.33;;;30.83;;
85742;SDS011;76184;42.004;21.420;2024-02-04T10:23:14;45.63;;;35.30;;
85742;SDS011;76184;42.004;21.420;2024-02-04T10:25:40;45.58;;;36.33;;
85742;SDS011;76184;42.004;21.420;2024-02-04T10:28:07;55.15;;;42.80;;
85742;SDS011;76184;42.004;21.420;2024-02-04T10:30:33;55.80;;;43.58;;
85742;SDS011;76184;42.004;21.420;2024-02-04T10:32:59;54.35;;;41.95;;
85742;SDS011;76184;42.004;21.420;2024-02-04T10:35:26;62.17;;;49.92;;
85742;SDS011;76184;42.004;21.420;2024-02-04T10:37:52;58.13;;;46.33;;
85742;SDS011;76184;42.004;21.420;2024-02-04T10:40:18;59.22;;;46.22;;
85742;SDS011;76184;42.004;21.420;2024-02-04T10:42:45;55.42;;;43.83;;
85742;SDS011;76184;42.004;21.420;2024-02-04T10:45:11;57.47;;;45.83;;
85742;SDS011;76184;42.004;21.420;2024-02-04T10:47:39;54.10;;;42.17;;
85742;SDS011;76184;42.004;21.420;2024-02-04T10:50:06;52.38;;;41.35;;
85742;SDS011;76184;42.004;21.420;2024-02-04T10:52:36;56.50;;;42.40;;
85742;SDS011;76184;42.004;21.420;2024-02-04T10:55:07;55.10;;;41.47;;
85742;SDS011;76184;42.004;21.420;2024-02-04T10:57:34;61.47;;;44.00;;
85742;SDS011;76184;42.004;21.420;2024-02-04T11:00:04;57.63;;;45.65;;
85742;SDS011;76184;42.004;21.420;2024-02-04T11:02:34;56.28;;;43.58;;
85742;SDS011;76184;42.004;21.420;2024-02-04T11:05:03;54.53;;;40.72;;
85742;SDS011;76184;42.004;21.420;2024-02-04T11:07:33;56.70;;;39.20;;
85742;SDS011;76184;42.004;21.420;2024-02-04T11:09:59;51.30;;;39.47;;
85742;SDS011;76184;42.004;21.420;2024-02-04T11:12:26;44.83;;;34.22;;
85742;SDS011;76184;42.004;21.420;2024-02-04T11:14:54;49.50;;;33.85;;
85742;SDS011;76184;42.004;21.420;2024-02-04T11:27:11;46.63;;;34.58;;
85742;SDS011;76184;42.004;21.420;2024-02-04T11:29:37;52.58;;;36.88;;
85742;SDS011;76184;42.004;21.420;2024-02-04T11:32:03;50.45;;;34.15;;
85742;SDS011;76184;42.004;21.420;2024-02-04T11:34:29;45.05;;;34.90;;
85742;SDS011;76184;42.004;21.420;2024-02-04T11:36:55;46.67;;;34.03;;
85742;SDS011;76184;42.004;21.420;2024-02-04T11:39:24;42.00;;;31.67;;
85742;SDS011;76184;42.004;21.420;2024-02-04T11:41:50;44.55;;;28.20;;
85742;SDS011;76184;42.004;21.420;2024-02-04T11:44:26;38.33;;;24.50;;
85742;SDS011;76184;42.004;21.420;2024-02-04T11:46:54;46.08;;;29.48;;
85742;SDS011;76184;42.004;21.420;2024-02-04T11:49:24;41.67;;;26.98;;
85742;SDS011;76184;42.004;21.420;2024-02-04T11:51:50;41.88;;;29.67;;
85742;SDS011;76184;42.004;21.420;2024-02-04T11:54:17;44.97;;;30.45;;
85742;SDS011;76184;42.004;21.420;2024-02-04T11:56:45;42.63;;;28.35;;
85742;SDS011;76184;42.004;21.420;2024-02-04T11:59:17;49.30;;;30.45;;
85742;SDS011;76184;42.004;21.420;2024-02-04T12:01:44;49.20;;;29.92;;
85742;SDS011;76184;42.004;21.420;2024-02-04T12:04:13;47.08;;;32.33;;
85742;SDS011;76184;42.004;21.420;2024-02-04T12:06:40;47.22;;;33.25;;
85742;SDS011;76184;42.004;21.420;2024-02-04T12:09:07;50.38;;;33.90;;
85742;SDS011;76184;42.004;21.420;2024-02-04T12:11:34;43.70;;;29.77;;
85742;SDS011;76184;42.004;21.420;2024-02-04T12:14:01;44.58;;;32.55;;
85742;SDS011;76184;42.004;21.420;2024-02-04T12:16:27;41.38;;;29.77;;
85742;SDS011;76184;42.004;21.420;2024-02-04T12:18:53;41.78;;;26.40;;
85742;SDS011;76184;42.004;21.420;2024-02-04T12:21:19;41.55;;;28.90;;
85742;SDS011;76184;42.004;21.420;2024-02-04T12:23:46;36.47;;;23.63;;
85742;SDS011;76184;42.004;21.420;2024-02-04T12:26:12;32.63;;;22.05;;
85742;SDS011;76184;42.004;21.420;2024-02-04T12:28:39;32.60;;;23.15;;
85742;SDS011;76184;42.004;21.420;2024-02-04T12:31:05;32.10;;;20.63;;
85742;SDS011;76184;42.004;21.420;2024-02-04T12:33:31;27.38;;;16.42;;
85742;SDS011;76184;42.004;21.420;2024-02-04T12:35:57;25.98;;;16.42;;
85742;SDS011;76184;42.004;21.420;2024-02-04T12:38:25;23.85;;;15.55;;
85742;SDS011;76184;42.004;21.420;2024-02-04T12:40:51;23.25;;;16.42;;
85742;SDS011;76184;42.004;21.420;2024-02-04T12:43:17;23.58;;;16.48;;
85742;SDS011;76184;42.004;21.420;2024-02-04T12:45:43;24.77;;;16.55;;
85742;SDS011;76184;42.004;21.420;2024-02-04T12:48:10;26.10;;;16.67;;
85742;SDS011;76184;42.004;21.420;2024-02-04T12:50:40;23.63;;;16.98;;
85742;SDS011;76184;42.004;21.420;2024-02-04T12:53:07;23.48;;;14.77;;
85742;SDS011;76184;42.004;21.420;2024-02-04T12:55:34;20.25;;;13.02;;
85742;SDS011;76184;42.004;21.420;2024-02-04T12:58:07;17.80;;;12.15;;
85742;SDS011;76184;42.004;21.420;2024-02-04T13:00:34;19.30;;;12.82;;
85742;SDS011;76184;42.004;21.420;2024-02-04T13:03:01;22.70;;;12.55;;
85742;SDS011;76184;42.004;21.420;2024-02-04T13:05:27;22.10;;;12.63;;
85742;SDS011;76184;42.004;21.420;2024-02-04T13:07:55;28.13;;;12.55;;
85742;SDS011;76184;42.004;21.420;2024-02-04T13:10:25;25.75;;;11.40;;
85742;SDS011;76184;42.004;21.420;2024-02-04T13:12:58;20.42;;;11.65;;
85742;SDS011;76184;42.004;21.420;2024-02-04T13:15:25;22.30;;;11.57;;
85742;SDS011;76184;42.004;21.420;2024-02-04T13:17:52;20.13;;;12.02;;
85742;SDS011;76184;42.004;21.420;2024-02-04T13:20:18;18.30;;;10.30;;
85742;SDS011;76184;42.004;21.420;2024-02-04T13:22:44;22.60;;;11.10;;
85742;SDS011;76184;42.004;21.420;2024-02-04T13:25:10;20.58;;;12.05;;
85742;SDS011;76184;42.004;21.420;2024-02-04T13:27:36;18.02;;;10.43;;
85742;SDS011;76184;42.004;21.420;2024-02-04T13:30:02;16.60;;;10.05;;
85742;SDS011;76184;42.004;21.420;2024-02-04T13:32:29;18.02;;;10.93;;
85742;SDS011;76184;42.004;21.420;2024-02-04T13:34:55;16.60;;;10.80;;
85742;SDS011;76184;42.004;21.420;2024-02-04T13:37:21;21.75;;;12.73;;
85742;SDS011;76184;42.004;21.420;2024-02-04T13:39:47;35.55;;;23.75;;
85742;SDS011;76184;42.004;21.420;2024-02-04T13:42:14;34.35;;;24.30;;
85742;SDS011;76184;42.004;21.420;2024-02-04T13:44:40;36.40;;;22.25;;
85742;SDS011;76184;42.004;21.420;2024-02-04T13:47:06;34.28;;;23.15;;
85742;SDS011;76184;42.004;21.420;2024-02-04T13:49:32;38.78;;;25.73;;
85742;SDS011;76184;42.004;21.420;2024-02-04T13:51:58;39.83;;;25.42;;
85742;SDS011;76184;42.004;21.420;2024-02-04T13:54:24;40.80;;;24.83;;
85742;SDS011;76184;42.004;21.420;2024-02-04T13:56:51;40.90;;;25.55;;
85742;SDS011;76184;42.004;21.420;2024-02-04T13:59:17;41.95;;;26.55;;
85742;SDS011;76184;42.004;21.420;2024-02-04T14:01:43;41.35;;;27.08;;
85742;SDS011;76184;42.004;21.420;2024-02-04T14:04:09;39.78;;;25.23;;
85742;SDS011;76184;42.004;21.420;2024-02-04T14:06:35;39.72;;;26.70;;
85742;SDS011;76184;42.004;21.420;2024-02-04T14:09:02;39.92;;;26.35;;
85742;SDS011;76184;42.004;21.420;2024-02-04T14:11:28;65.25;;;43.83;;
85742;SDS011;76184;42.004;21.420;2024-02-04T14:13:54;52.03;;;34.25;;
85742;SDS011;76184;42.004;21.420;2024-02-04T14:16:20;43.60;;;28.17;;